createdAt,value
2022-10-23T00:00:43.763Z,58.65
2022-10-23T00:03:10.500Z,58.69
2022-10-23T00:05:40.366Z,58.73
2022-10-23T00:08:06.958Z,58.40
2022-10-23T00:10:33.824Z,58.52
2022-10-23T00:13:00.276Z,58.36
2022-10-23T00:15:27.529Z,58.69
2022-10-23T00:17:54.233Z,58.49
2022-10-23T00:20:21.793Z,58.26
2022-10-23T00:22:48.240Z,58.63
2022-10-23T00:25:16.325Z,58.39
2022-10-23T00:27:43.401Z,58.77
2022-10-23T00:30:10.892Z,58.59
2022-10-23T00:32:37.457Z,58.67
2022-10-23T00:35:05.127Z,58.78
2022-10-23T00:37:31.617Z,58.95
2022-10-23T00:39:58.048Z,58.68
2022-10-23T00:42:24.833Z,58.66
2022-10-23T00:44:51.263Z,59.00
2022-10-23T00:47:18.087Z,59.26
2022-10-23T00:49:44.548Z,59.18
2022-10-23T00:52:12.951Z,59.08
2022-10-23T00:54:41.163Z,59.07
2022-10-23T00:57:11.991Z,59.43
2022-10-23T00:59:38.613Z,58.99
2022-10-23T01:02:05.244Z,58.94
2022-10-23T01:04:32.651Z,59.19
2022-10-23T01:07:19.659Z,59.30
2022-10-23T01:09:56.340Z,59.24
2022-10-23T01:12:33.103Z,59.48
2022-10-23T01:15:47.361Z,59.11
2022-10-23T01:18:22.951Z,59.41
2022-10-23T01:21:04.667Z,59.15
2022-10-23T01:23:40.182Z,60.50
2022-10-23T01:26:25.151Z,60.13
2022-10-23T01:29:07.419Z,59.83
2022-10-23T01:31:38.322Z,60.29
2022-10-23T01:34:18.879Z,60.08
2022-10-23T01:36:48.671Z,60.05
2022-10-23T01:39:19.750Z,59.88
2022-10-23T01:41:58.552Z,60.36
2022-10-23T01:44:26.938Z,59.48
2022-10-23T01:46:53.883Z,59.56
2022-10-23T01:49:21.534Z,59.73
2022-10-23T01:51:51.245Z,60.44
2022-10-23T01:54:19.637Z,59.95
2022-10-23T01:56:48.709Z,59.78
2022-10-23T01:59:19.697Z,60.03
2022-10-23T02:01:48.095Z,60.50
2022-10-23T02:04:21.499Z,60.03
2022-10-23T02:06:48.001Z,59.99
2022-10-23T02:09:14.495Z,60.04
2022-10-23T02:11:51.212Z,59.83
2022-10-23T02:14:26.903Z,59.83
2022-10-23T02:16:55.097Z,59.59
2022-10-23T02:19:43.720Z,60.09
2022-10-23T02:22:34.930Z,59.78
2022-10-23T02:25:12.145Z,59.69
2022-10-23T02:27:48.282Z,60.66
2022-10-23T02:30:16.993Z,60.07
2022-10-23T02:32:49.324Z,59.87
2022-10-23T02:35:17.534Z,59.52
2022-10-23T02:37:44.378Z,59.61
2022-10-23T02:40:11.561Z,59.31
2022-10-23T02:43:09.267Z,59.33
2022-10-23T02:46:01.958Z,59.14
2022-10-23T02:48:33.999Z,59.13
2022-10-23T02:51:07.240Z,59.05
2022-10-23T02:53:38.918Z,59.13
2022-10-23T02:56:29.041Z,59.19
2022-10-23T02:59:20.515Z,58.78
2022-10-23T03:01:57.593Z,58.79
2022-10-23T03:04:24.547Z,58.58
2022-10-23T03:06:51.596Z,58.58
2022-10-23T03:09:18.577Z,58.72
2022-10-23T03:11:45.056Z,58.78
2022-10-23T03:14:12.942Z,58.83
2022-10-23T03:16:39.446Z,58.74
2022-10-23T03:19:05.960Z,58.74
2022-10-23T03:21:32.459Z,58.70
2022-10-23T03:23:58.861Z,58.51
2022-10-23T03:26:25.349Z,58.73
2022-10-23T03:28:51.774Z,58.50
2022-10-23T03:31:18.202Z,58.80
2022-10-23T03:33:44.748Z,58.55
2022-10-23T03:36:11.281Z,58.57
2022-10-23T03:38:37.754Z,58.84
2022-10-23T03:41:04.354Z,58.79
2022-10-23T03:43:30.806Z,58.97
2022-10-23T03:45:57.526Z,58.84
2022-10-23T03:48:24.915Z,58.71
2022-10-23T03:50:51.652Z,58.90
2022-10-23T03:53:18.386Z,58.93
2022-10-23T03:55:45.010Z,58.61
2022-10-23T03:58:11.471Z,58.70
2022-10-23T04:00:37.960Z,58.36
2022-10-23T04:03:04.427Z,58.69
2022-10-23T04:05:30.868Z,58.38
2022-10-23T04:07:57.353Z,59.43
2022-10-23T04:10:23.817Z,59.07
2022-10-23T04:12:50.348Z,59.21
2022-10-23T04:15:16.855Z,58.93
2022-10-23T04:17:43.307Z,59.45
2022-10-23T04:20:09.918Z,59.43
2022-10-23T04:22:36.330Z,59.09
2022-10-23T04:25:02.841Z,59.10
2022-10-23T04:27:29.481Z,59.16
2022-10-23T04:29:58.360Z,59.41
2022-10-23T04:32:25.984Z,59.01
2022-10-23T04:34:52.447Z,59.03
2022-10-23T04:37:18.953Z,59.49
2022-10-23T04:39:45.434Z,59.15
2022-10-23T04:42:11.861Z,59.09
2022-10-23T04:44:38.301Z,58.80
2022-10-23T04:47:04.834Z,59.53
2022-10-23T04:49:31.272Z,59.13
2022-10-23T04:51:57.728Z,59.58
2022-10-23T04:54:24.453Z,59.24
2022-10-23T04:56:51.093Z,59.61
2022-10-23T04:59:17.605Z,60.19
2022-10-23T05:01:44.084Z,59.79
2022-10-23T05:04:10.702Z,59.89
2022-10-23T05:06:37.218Z,59.60
2022-10-23T05:09:03.823Z,59.82
2022-10-23T05:11:30.256Z,59.93
2022-10-23T05:13:56.708Z,59.82
2022-10-23T05:16:40.037Z,59.63
2022-10-23T05:19:07.948Z,59.66
2022-10-23T05:21:36.090Z,59.35
2022-10-23T05:24:02.702Z,60.03
2022-10-23T05:26:30.974Z,59.57
2022-10-23T05:28:57.432Z,59.43
2022-10-23T05:31:24.603Z,59.78
2022-10-23T05:33:52.948Z,60.08
2022-10-23T05:36:19.452Z,60.03
2022-10-23T05:38:46.073Z,59.73
2022-10-23T05:41:12.668Z,59.36
2022-10-23T05:43:39.118Z,59.47
2022-10-23T05:46:06.218Z,59.75
2022-10-23T05:48:34.993Z,59.65
2022-10-23T05:51:06.562Z,59.58
2022-10-23T05:53:33.058Z,59.95
2022-10-23T05:56:09.274Z,59.57
2022-10-23T05:58:35.965Z,59.44
2022-10-23T06:01:07.501Z,59.57
2022-10-23T06:03:34.685Z,59.52
2022-10-23T06:06:01.218Z,59.99
2022-10-23T06:08:27.750Z,60.33
2022-10-23T06:10:54.267Z,60.42
2022-10-23T06:13:20.755Z,61.29
2022-10-23T06:15:47.255Z,60.71
2022-10-23T06:18:13.783Z,60.37
2022-10-23T06:20:40.372Z,60.67
2022-10-23T06:23:07.251Z,60.41
2022-10-23T06:25:33.749Z,60.08
2022-10-23T06:28:00.244Z,60.17
2022-10-23T06:30:26.736Z,60.45
2022-10-23T06:32:53.972Z,61.23
2022-10-23T06:35:20.382Z,60.52
2022-10-23T06:37:47.046Z,60.77
2022-10-23T06:40:13.462Z,60.12
2022-10-23T06:42:40.069Z,60.05
2022-10-23T06:45:07.408Z,59.98
2022-10-23T06:47:34.090Z,60.52
2022-10-23T06:50:00.534Z,60.18
2022-10-23T06:52:47.871Z,59.73
2022-10-23T06:55:14.826Z,60.01
2022-10-23T06:57:41.860Z,59.76
2022-10-23T07:00:09.592Z,59.39
2022-10-23T07:02:36.764Z,59.50
2022-10-23T07:05:03.778Z,59.82
2022-10-23T07:07:30.820Z,59.06
2022-10-23T07:09:57.424Z,58.88
2022-10-23T07:12:23.998Z,58.79
2022-10-23T07:14:50.793Z,58.67
2022-10-23T07:17:17.334Z,58.14
2022-10-23T07:19:43.774Z,58.11
2022-10-23T07:22:13.283Z,58.13
2022-10-23T07:24:42.235Z,57.63
2022-10-23T07:27:08.682Z,57.52
2022-10-23T07:29:35.274Z,57.12
2022-10-23T07:32:01.845Z,56.72
2022-10-23T07:34:38.224Z,56.69
2022-10-23T07:37:04.646Z,56.22
2022-10-23T07:39:31.136Z,56.18
2022-10-23T07:41:57.567Z,55.97
2022-10-23T07:44:26.976Z,55.87
2022-10-23T07:46:54.294Z,55.81
2022-10-23T07:49:20.795Z,56.25
2022-10-23T07:51:50.511Z,55.93
2022-10-23T07:54:18.199Z,55.85
2022-10-23T07:56:44.693Z,55.75
2022-10-23T07:59:14.169Z,55.75
2022-10-23T08:01:43.663Z,55.59
2022-10-23T08:04:10.799Z,55.53
2022-10-23T08:06:38.225Z,55.58
2022-10-23T08:09:06.556Z,55.71
2022-10-23T08:11:35.547Z,55.81
2022-10-23T08:14:06.628Z,55.58
2022-10-23T08:16:34.519Z,55.80
2022-10-23T08:19:01.375Z,55.62
2022-10-23T08:21:28.051Z,55.63
2022-10-23T08:23:58.224Z,55.66
2022-10-23T08:26:25.730Z,55.92
2022-10-23T08:28:52.830Z,55.37
2022-10-23T08:31:20.806Z,55.13
2022-10-23T08:36:20.232Z,54.93
2022-10-23T08:38:46.755Z,53.90
2022-10-23T08:41:29.547Z,54.49
2022-10-23T08:44:22.375Z,53.66
2022-10-23T08:47:00.783Z,53.25
2022-10-23T08:49:33.313Z,52.42
2022-10-23T08:52:03.171Z,51.80
2022-10-23T08:54:43.423Z,51.42
2022-10-23T08:57:13.650Z,50.44
2022-10-23T08:59:48.602Z,49.58
2022-10-23T09:02:18.291Z,47.12
2022-10-23T09:04:46.775Z,45.97
2022-10-23T09:07:34.043Z,44.90
2022-10-23T09:10:25.600Z,44.46
2022-10-23T09:12:52.092Z,43.22
2022-10-23T09:15:25.099Z,42.49
2022-10-23T09:17:58.721Z,40.79
2022-10-23T09:20:26.885Z,40.46
2022-10-23T09:22:57.327Z,38.91
2022-10-23T09:25:26.842Z,38.30
2022-10-23T09:27:57.329Z,38.62
2022-10-23T09:30:36.609Z,37.63
2022-10-23T09:33:19.717Z,37.16
2022-10-23T09:36:00.046Z,36.80
2022-10-23T09:38:31.947Z,35.37
2022-10-23T09:41:21.666Z,34.99
2022-10-23T09:44:01.738Z,32.66
2022-10-23T09:46:45.200Z,32.30
2022-10-23T09:49:20.709Z,30.55
2022-10-23T09:51:54.326Z,29.12
2022-10-23T09:54:23.846Z,29.90
2022-10-23T09:56:50.786Z,32.68
2022-10-23T09:59:28.926Z,32.96
2022-10-23T10:01:58.771Z,34.22
2022-10-23T10:04:40.192Z,38.03
2022-10-23T10:07:20.980Z,39.09
2022-10-23T10:09:47.837Z,39.44
2022-10-23T10:12:17.278Z,41.17
2022-10-23T10:15:01.708Z,43.34
2022-10-23T10:17:39.865Z,44.18
2022-10-23T10:20:27.703Z,43.79
2022-10-23T10:23:06.461Z,43.11
2022-10-23T10:25:39.390Z,45.18
2022-10-23T10:28:27.170Z,43.44
2022-10-23T10:31:01.317Z,43.10
2022-10-23T10:33:45.893Z,42.82
2022-10-23T10:36:30.608Z,42.21
2022-10-23T10:39:00.344Z,41.85
2022-10-23T10:42:00.892Z,41.39
2022-10-23T10:44:49.065Z,41.76
2022-10-23T10:47:22.719Z,41.20
2022-10-23T10:49:55.473Z,41.79
2022-10-23T10:52:28.314Z,42.36
2022-10-23T10:55:05.933Z,41.88
2022-10-23T10:57:34.850Z,44.82
2022-10-23T11:00:06.505Z,42.80
2022-10-23T11:02:42.433Z,43.53
2022-10-23T11:05:44.296Z,43.58
2022-10-23T11:08:18.147Z,45.15
2022-10-23T11:10:46.717Z,44.45
2022-10-23T11:13:25.288Z,44.26
2022-10-23T11:15:54.778Z,43.63
2022-10-23T11:18:27.197Z,44.99
2022-10-23T11:21:15.346Z,44.45
2022-10-23T11:24:03.136Z,45.81
2022-10-23T11:27:04.036Z,46.04
2022-10-23T11:29:40.800Z,46.03
2022-10-23T11:32:38.150Z,48.02
2022-10-23T11:35:04.541Z,47.06
2022-10-23T11:37:31.076Z,46.38
2022-10-23T11:40:02.771Z,47.17
2022-10-23T11:42:41.598Z,46.14
2022-10-23T11:45:27.087Z,45.46
2022-10-23T11:48:24.069Z,45.30
2022-10-23T11:50:54.927Z,46.87
2022-10-23T11:53:38.236Z,46.07
2022-10-23T11:56:14.544Z,47.67
2022-10-23T11:58:46.740Z,46.69
2022-10-23T12:01:25.381Z,45.68
2022-10-23T12:04:12.359Z,44.57
2022-10-23T12:06:42.120Z,45.37
2022-10-23T12:09:26.966Z,45.71
2022-10-23T12:12:08.852Z,45.90
2022-10-23T12:14:39.521Z,47.02
2022-10-23T12:17:24.317Z,47.46
2022-10-23T12:20:02.429Z,48.83
2022-10-23T12:22:39.643Z,48.91
2022-10-23T12:25:13.777Z,48.54
2022-10-23T12:27:48.970Z,49.71
2022-10-23T12:30:24.241Z,48.33
2022-10-23T12:33:13.944Z,49.84
2022-10-23T12:36:00.803Z,47.96
2022-10-23T12:38:32.583Z,46.95
2022-10-23T12:41:19.356Z,46.50
2022-10-23T12:43:55.552Z,46.08
2022-10-23T12:46:37.447Z,45.46
2022-10-23T12:49:11.595Z,46.11
2022-10-23T12:51:38.107Z,44.59
2022-10-23T12:54:23.451Z,43.06
2022-10-23T12:56:50.409Z,41.96
2022-10-23T12:59:21.305Z,42.00
2022-10-23T13:01:52.573Z,41.27
2022-10-23T13:04:28.364Z,40.39
2022-10-23T13:06:56.784Z,39.88
2022-10-23T13:09:24.619Z,39.85
2022-10-23T13:11:52.429Z,39.57
2022-10-23T13:14:38.218Z,39.02
2022-10-23T13:17:10.058Z,38.77
2022-10-23T13:19:36.874Z,37.22
2022-10-23T13:22:05.494Z,38.55
2022-10-23T13:24:31.958Z,38.13
2022-10-23T13:26:58.922Z,37.99
2022-10-23T13:29:28.952Z,38.33
2022-10-23T13:31:55.822Z,38.72
2022-10-23T13:34:30.276Z,41.66
2022-10-23T13:37:23.029Z,42.44
2022-10-23T13:40:00.588Z,43.05
2022-10-23T13:42:27.209Z,44.36
2022-10-23T13:44:53.720Z,42.16
2022-10-23T13:47:20.534Z,43.19
2022-10-23T13:49:47.050Z,42.63
2022-10-23T13:52:15.145Z,42.83
2022-10-23T13:54:43.437Z,45.36
2022-10-23T13:57:13.581Z,44.29
2022-10-23T13:59:40.050Z,44.96
2022-10-23T14:02:19.071Z,46.46
2022-10-23T14:04:47.127Z,46.25
2022-10-23T14:07:13.559Z,46.36
2022-10-23T14:09:40.001Z,46.00
2022-10-23T14:12:06.651Z,45.94
2022-10-23T14:14:33.757Z,46.60
2022-10-23T14:17:00.307Z,46.02
2022-10-23T14:19:26.884Z,44.87
2022-10-23T14:21:53.330Z,45.94
2022-10-23T14:24:19.859Z,47.10
2022-10-23T14:26:46.376Z,46.36
2022-10-23T14:29:21.359Z,45.87
2022-10-23T14:31:49.709Z,47.00
2022-10-23T14:34:16.748Z,45.80
2022-10-23T14:36:50.184Z,46.15
2022-10-23T14:39:18.102Z,45.92
2022-10-23T14:41:44.562Z,45.20
2022-10-23T14:44:11.018Z,45.00
2022-10-23T14:46:38.386Z,44.38
2022-10-23T14:49:05.643Z,44.60
2022-10-23T14:51:32.289Z,44.07
2022-10-23T14:54:01.731Z,43.93
2022-10-23T14:56:33.331Z,44.84
2022-10-23T14:59:03.048Z,45.85
2022-10-23T15:01:36.456Z,47.42
2022-10-23T15:04:03.380Z,46.14
2022-10-23T15:06:30.181Z,47.25
2022-10-23T15:08:56.835Z,47.58
2022-10-23T15:11:24.510Z,47.30
2022-10-23T15:13:51.342Z,46.91
2022-10-23T15:16:17.934Z,47.71
2022-10-23T15:18:44.382Z,47.45
2022-10-23T15:21:12.449Z,47.12
2022-10-23T15:23:40.772Z,47.85
2022-10-23T15:26:13.974Z,48.04
2022-10-23T15:28:40.479Z,48.13
2022-10-23T15:31:06.959Z,48.86
2022-10-23T15:33:33.439Z,49.05
2022-10-23T15:35:59.875Z,49.72
2022-10-23T15:38:26.403Z,49.37
2022-10-23T15:40:54.439Z,50.09
2022-10-23T15:43:21.097Z,50.26
2022-10-23T15:45:47.577Z,50.66
2022-10-23T15:48:14.173Z,50.37
2022-10-23T15:50:40.702Z,51.38
2022-10-23T15:53:07.131Z,51.33
2022-10-23T15:55:33.637Z,52.00
2022-10-23T15:58:49.750Z,54.32
2022-10-23T16:01:16.430Z,54.47
2022-10-23T16:03:43.054Z,54.01
2022-10-23T16:06:11.528Z,54.24
2022-10-23T16:08:38.744Z,54.73
2022-10-23T16:11:13.786Z,54.22
2022-10-23T16:13:40.329Z,53.93
2022-10-23T16:16:07.282Z,53.61
2022-10-23T16:18:33.721Z,53.11
2022-10-23T16:21:00.164Z,53.41
2022-10-23T16:23:28.307Z,54.02
2022-10-23T16:25:55.150Z,54.06
2022-10-23T16:28:21.661Z,53.63
2022-10-23T16:30:48.092Z,54.69
2022-10-23T16:33:14.556Z,55.77
2022-10-23T16:35:41.063Z,55.87
2022-10-23T16:38:07.583Z,56.36
2022-10-23T16:40:34.009Z,56.75
2022-10-23T16:43:00.448Z,56.94
2022-10-23T16:45:26.970Z,56.82
2022-10-23T16:47:53.765Z,56.65
2022-10-23T16:50:21.842Z,56.29
2022-10-23T16:52:49.947Z,55.60
2022-10-23T16:55:18.747Z,54.92
2022-10-23T16:57:45.211Z,54.96
2022-10-23T17:00:12.046Z,55.42
2022-10-23T17:02:38.971Z,56.42
2022-10-23T17:05:05.922Z,55.79
2022-10-23T17:07:32.448Z,56.77
2022-10-23T17:09:58.970Z,58.97
2022-10-23T17:12:25.410Z,62.00
2022-10-23T17:14:52.007Z,62.40
2022-10-23T17:17:18.600Z,63.38
2022-10-23T17:19:46.520Z,64.75
2022-10-23T17:22:14.062Z,66.05
2022-10-23T17:24:41.600Z,68.29
2022-10-23T17:27:08.305Z,68.34
2022-10-23T17:29:35.157Z,70.42
2022-10-23T17:32:01.834Z,71.14
2022-10-23T17:34:28.326Z,70.54
2022-10-23T17:36:55.779Z,71.45
2022-10-23T17:39:28.984Z,72.59
2022-10-23T17:41:58.031Z,73.97
2022-10-23T17:44:24.515Z,74.59
2022-10-23T17:46:53.565Z,76.92
2022-10-23T17:49:21.023Z,75.84
2022-10-23T17:51:51.602Z,77.02
2022-10-23T17:54:18.142Z,76.42
2022-10-23T17:56:44.792Z,78.63
2022-10-23T17:59:16.311Z,77.21
2022-10-23T18:01:43.961Z,78.84
2022-10-23T18:04:10.615Z,78.92
2022-10-23T18:06:45.725Z,78.79
2022-10-23T18:09:12.781Z,77.79
2022-10-23T18:11:45.267Z,79.81
2022-10-23T18:14:14.004Z,79.06
2022-10-23T18:16:40.756Z,80.34
2022-10-23T18:19:07.851Z,81.33
2022-10-23T18:21:35.771Z,80.08
2022-10-23T18:24:02.897Z,78.94
2022-10-23T18:26:32.143Z,79.31
2022-10-23T18:28:59.491Z,80.22
2022-10-23T18:31:29.610Z,80.35
2022-10-23T18:34:03.151Z,80.24
2022-10-23T18:36:32.702Z,80.14
2022-10-23T18:38:59.580Z,80.85
2022-10-23T18:41:26.220Z,79.02
2022-10-23T18:43:53.783Z,77.86
2022-10-23T18:46:20.467Z,77.07
2022-10-23T18:48:47.981Z,76.58
2022-10-23T18:51:22.930Z,76.86
2022-10-23T18:53:49.622Z,75.35
2022-10-23T18:56:21.960Z,77.94
2022-10-23T18:58:53.354Z,77.00
2022-10-23T19:01:20.908Z,76.46
2022-10-23T19:03:47.815Z,78.39
2022-10-23T19:06:14.880Z,75.82
2022-10-23T19:08:42.848Z,74.72
2022-10-23T19:11:10.609Z,73.71
2022-10-23T19:13:39.137Z,73.00
2022-10-23T19:16:19.022Z,72.75
2022-10-23T19:18:48.377Z,72.30
2022-10-23T19:21:16.955Z,71.79
2022-10-23T19:23:43.876Z,71.45
2022-10-23T19:26:12.992Z,73.39
2022-10-23T19:28:42.392Z,71.93
2022-10-23T19:31:12.840Z,71.11
2022-10-23T19:33:39.593Z,71.11
2022-10-23T19:36:11.218Z,70.74
2022-10-23T19:38:43.267Z,73.18
2022-10-23T19:41:09.940Z,71.68
2022-10-23T19:43:37.748Z,72.18
2022-10-23T19:46:09.269Z,73.18
2022-10-23T19:48:42.273Z,73.83
2022-10-23T19:51:09.453Z,73.11
2022-10-23T19:53:36.318Z,73.97
2022-10-23T19:56:04.782Z,73.09
2022-10-23T19:58:31.264Z,72.67
2022-10-23T20:00:57.792Z,71.50
2022-10-23T20:03:24.372Z,71.07
2022-10-23T20:05:50.864Z,70.82
2022-10-23T20:08:18.007Z,69.82
2022-10-23T20:10:46.492Z,70.14
2022-10-23T20:13:19.852Z,69.21
2022-10-23T20:15:47.068Z,68.60
2022-10-23T20:18:13.620Z,68.92
2022-10-23T20:20:41.595Z,68.12
2022-10-23T20:23:08.322Z,67.25
2022-10-23T20:25:34.879Z,67.72
2022-10-23T20:28:01.359Z,66.84
2022-10-23T20:30:28.069Z,67.18
2022-10-23T20:32:54.528Z,66.43
2022-10-23T20:35:21.109Z,66.46
2022-10-23T20:37:47.585Z,67.48
2022-10-23T20:40:14.262Z,67.10
2022-10-23T20:42:40.947Z,66.81
2022-10-23T20:45:07.908Z,66.52
2022-10-23T20:47:34.380Z,65.86
2022-10-23T20:50:00.816Z,67.03
2022-10-23T20:52:30.138Z,66.73
2022-10-23T20:54:56.728Z,65.99
2022-10-23T20:57:23.202Z,66.58
2022-10-23T20:59:49.676Z,66.71
2022-10-23T21:02:16.366Z,67.30
2022-10-23T21:04:42.865Z,66.88
2022-10-23T21:07:11.078Z,66.71
2022-10-23T21:09:38.529Z,66.18
2022-10-23T21:12:06.422Z,66.59
2022-10-23T21:14:33.103Z,66.79
2022-10-23T21:16:59.543Z,65.48
2022-10-23T21:19:25.993Z,66.14
2022-10-23T21:21:52.558Z,66.49
2022-10-23T21:24:19.041Z,66.32
2022-10-23T21:26:45.670Z,65.49
2022-10-23T21:29:18.394Z,65.60
2022-10-23T21:31:46.073Z,65.25
2022-10-23T21:34:12.669Z,64.32
2022-10-23T21:36:48.482Z,63.84
2022-10-23T21:39:20.454Z,64.02
2022-10-23T21:41:47.353Z,63.30
2022-10-23T21:44:13.833Z,63.67
2022-10-23T21:46:41.646Z,63.48
2022-10-23T21:49:09.819Z,64.80
2022-10-23T21:51:37.372Z,65.68
2022-10-23T21:54:08.669Z,65.67
2022-10-23T21:56:42.061Z,65.46
2022-10-23T21:59:12.749Z,65.95
2022-10-23T22:01:44.132Z,64.82
2022-10-23T22:04:11.844Z,64.60
2022-10-23T22:06:38.846Z,65.38
2022-10-23T22:09:06.174Z,64.59
2022-10-23T22:11:32.875Z,65.55
2022-10-23T22:13:59.607Z,64.58
2022-10-23T22:16:26.262Z,65.13
2022-10-23T22:18:53.390Z,65.80
2022-10-23T22:21:22.427Z,64.89
2022-10-23T22:23:49.628Z,64.99
2022-10-23T22:26:22.332Z,64.46
2022-10-23T22:28:49.928Z,65.54
2022-10-23T22:31:18.132Z,65.13
2022-10-23T22:33:44.717Z,65.69
2022-10-23T22:36:11.334Z,66.13
2022-10-23T22:38:38.217Z,65.21
2022-10-23T22:41:05.819Z,65.91
2022-10-23T22:43:32.426Z,65.94
2022-10-23T22:46:08.441Z,66.77
2022-10-23T22:48:35.643Z,65.58
2022-10-23T22:51:02.966Z,65.58
2022-10-23T22:53:29.515Z,66.46
2022-10-23T22:55:56.715Z,66.73
2022-10-23T22:58:24.104Z,66.81
2022-10-23T23:00:52.232Z,66.09
2022-10-23T23:03:18.826Z,64.61
2022-10-23T23:05:47.221Z,65.73
2022-10-23T23:08:14.591Z,66.38
2022-10-23T23:10:41.297Z,65.47
2022-10-23T23:13:07.751Z,65.10
2022-10-23T23:15:39.060Z,64.21
2022-10-23T23:18:05.865Z,66.24
2022-10-23T23:20:32.386Z,65.61
2022-10-23T23:23:09.703Z,66.01
2022-10-23T23:25:41.016Z,65.44
2022-10-23T23:28:07.597Z,64.56
2022-10-23T23:30:34.210Z,64.35
2022-10-23T23:33:00.674Z,64.43
2022-10-23T23:35:27.219Z,62.88
2022-10-23T23:37:53.689Z,63.40
2022-10-23T23:40:20.135Z,63.99
2022-10-23T23:42:47.120Z,64.05
2022-10-23T23:45:14.957Z,63.71
2022-10-23T23:47:42.336Z,63.21
2022-10-23T23:50:10.635Z,63.81
2022-10-23T23:52:37.219Z,63.02
2022-10-23T23:55:04.100Z,63.08
2022-10-23T23:57:30.657Z,62.75
2022-10-23T23:59:57.190Z,63.41
